Time;durP1;ratioP1;P1;durP2;ratioP2;P2;SDS_P1;SDS_P2;PMS_P1;PMS_P2;Temp;Humidity;BMP_temperature;BMP_pressure;BME280_temperature;BME280_humidity;BME280_pressure;Samples;Min_cycle;Max_cycle;Signal;HPM_P1;HPM_P2
2022/06/12 00:00:40;;;;;;;5.28;3.78;;;26.30;45.40;;;;;;5053876;28;20028;-77
2022/06/12 00:03:09;;;;;;;6.90;4.00;;;26.30;45.50;;;;;;5053685;28;20108;-77
2022/06/12 00:05:38;;;;;;;7.50;4.10;;;26.30;45.50;;;;;;5054058;28;20028;-77
2022/06/12 00:08:05;;;;;;;8.50;4.50;;;26.30;45.50;;;;;;5053777;28;20067;-77
2022/06/12 00:10:31;;;;;;;8.32;4.20;;;26.30;45.50;;;;;;5035690;28;20083;-77
2022/06/12 00:12:57;;;;;;;5.53;3.63;;;26.20;45.50;;;;;;5053431;28;20032;-77
2022/06/12 00:15:26;;;;;;;5.35;3.85;;;26.20;45.50;;;;;;5053841;28;20029;-77
2022/06/12 00:17:53;;;;;;;6.72;3.90;;;26.20;45.50;;;;;;5053478;28;20029;-77
2022/06/12 00:20:19;;;;;;;7.43;4.15;;;26.20;45.60;;;;;;5035560;28;20037;-77
2022/06/12 00:22:46;;;;;;;4.78;3.60;;;26.10;45.50;;;;;;5053639;28;20052;-77
2022/06/12 00:25:14;;;;;;;6.32;4.35;;;26.10;45.50;;;;;;5053578;28;20032;-77
2022/06/12 00:27:41;;;;;;;7.20;3.95;;;26.00;45.50;;;;;;5053294;28;20032;-76
2022/06/12 00:30:10;;;;;;;5.15;3.80;;;26.00;45.60;;;;;;5035619;28;20056;-77
2022/06/12 00:32:37;;;;;;;5.97;3.72;;;26.00;45.70;;;;;;5054145;28;20037;-77
2022/06/12 00:35:06;;;;;;;5.07;3.58;;;25.90;45.70;;;;;;5053544;28;20025;-77
2022/06/12 00:37:31;;;;;;;5.72;3.90;;;25.90;45.70;;;;;;5053356;28;20021;-77
2022/06/12 00:39:57;;;;;;;5.07;3.80;;;25.90;45.80;;;;;;5053329;28;20113;-77
2022/06/12 00:42:29;;;;;;;5.72;3.70;;;25.90;46.00;;;;;;5054115;28;20094;-77
2022/06/12 00:44:57;;;;;;;5.55;3.45;;;25.80;46.10;;;;;;5053748;28;20482;-77
2022/06/12 00:47:24;;;;;;;4.90;3.50;;;25.80;46.10;;;;;;5035801;28;20371;-77
2022/06/12 00:49:55;;;;;;;4.53;3.70;;;25.70;46.20;;;;;;5035046;28;20040;-77
2022/06/12 00:52:23;;;;;;;7.25;3.90;;;25.70;46.20;;;;;;5053494;28;20048;-77
2022/06/12 00:54:54;;;;;;;4.50;3.33;;;25.70;46.30;;;;;;5053282;28;20096;-77
2022/06/12 00:57:22;;;;;;;7.78;3.53;;;25.70;46.50;;;;;;5053293;28;20353;-77
2022/06/12 01:00:11;;;;;;;5.05;3.33;;;25.60;46.50;;;;;;5035468;28;20033;-77
2022/06/12 01:02:38;;;;;;;4.15;3.08;;;25.70;46.80;;;;;;5052395;28;20555;-77
2022/06/12 01:07:53;;;;;;;4.32;3.05;;;25.60;46.40;;;;;;5055312;28;20056;-77
2022/06/12 01:10:21;;;;;;;5.28;3.50;;;25.70;46.40;;;;;;5056931;28;20079;-77
2022/06/12 01:12:51;;;;;;;7.43;3.42;;;25.70;46.40;;;;;;5038961;28;20032;-77
2022/06/12 01:15:22;;;;;;;4.30;3.38;;;25.70;46.40;;;;;;5056618;28;20452;-77
2022/06/12 01:17:49;;;;;;;4.20;3.47;;;25.80;46.40;;;;;;5057125;28;20021;-77
2022/06/12 01:20:20;;;;;;;4.40;3.40;;;25.80;46.30;;;;;;5056747;28;20029;-77
2022/06/12 01:23:30;;;;;;;7.40;3.42;;;25.90;46.30;;;;;;5056945;28;20033;-77
2022/06/12 01:26:25;;;;;;;4.35;2.90;;;25.90;46.40;;;;;;5053519;28;20048;-77
2022/06/12 01:28:57;;;;;;;3.53;2.90;;;25.90;46.10;;;;;;5038766;28;20029;-77
2022/06/12 01:31:34;;;;;;;3.95;2.88;;;25.90;45.80;;;;;;5056756;28;20033;-76
2022/06/12 01:34:16;;;;;;;3.45;3.00;;;26.00;45.80;;;;;;5056429;28;20048;-76
2022/06/12 01:36:47;;;;;;;3.55;2.80;;;26.00;45.60;;;;;;5056849;28;20021;-76
2022/06/12 01:39:24;;;;;;;4.20;2.90;;;26.00;45.50;;;;;;5056686;28;20052;-74
2022/06/12 01:42:26;;;;;;;4.20;2.60;;;26.00;45.30;;;;;;5056362;28;20051;-75
2022/06/12 01:45:01;;;;;;;2.88;2.50;;;26.00;45.30;;;;;;5001887;28;20041;-76
2022/06/12 01:47:40;;;;;;;3.28;2.45;;;25.90;45.10;;;;;;5056488;28;20057;-76
2022/06/12 01:50:17;;;;;;;3.38;2.50;;;26.00;45.10;;;;;;5056456;28;20052;-76
2022/06/12 01:53:08;;;;;;;2.83;2.50;;;25.90;44.90;;;;;;5038386;28;20040;-76
2022/06/12 01:55:46;;;;;;;3.55;2.30;;;25.90;44.80;;;;;;5056276;28;20060;-76
2022/06/12 01:58:24;;;;;;;2.92;2.50;;;25.90;44.70;;;;;;5038475;28;20108;-76
2022/06/12 02:01:10;;;;;;;3.45;2.78;;;25.90;44.60;;;;;;5055953;28;20429;-76
2022/06/12 02:04:12;;;;;;;3.22;2.63;;;25.90;44.70;;;;;;5038432;28;20119;-76
2022/06/12 02:06:45;;;;;;;4.10;2.75;;;25.90;44.70;;;;;;5033028;28;20127;-76
2022/06/12 02:09:19;;;;;;;2.80;2.42;;;25.90;44.70;;;;;;5056050;28;20028;-76
2022/06/12 02:14:51;;;;;;;4.70;2.70;;;25.90;44.70;;;;;;5056057;28;20525;-75
2022/06/12 02:17:22;;;;;;;4.45;2.85;;;25.90;44.70;;;;;;5055794;28;20501;-76
2022/06/12 02:19:50;;;;;;;4.18;2.70;;;25.90;44.70;;;;;;5055550;28;20094;-75
2022/06/12 02:22:26;;;;;;;5.05;2.67;;;25.90;44.70;;;;;;5055633;28;20428;-76
2022/06/12 02:25:04;;;;;;;5.13;2.60;;;25.90;44.80;;;;;;5055819;28;20079;-78
2022/06/12 02:27:32;;;;;;;5.57;2.60;;;25.80;44.90;;;;;;5055590;28;20025;-76
2022/06/12 02:30:10;;;;;;;2.88;2.60;;;25.70;45.50;;;;;;5055384;28;20037;-76
2022/06/12 02:32:58;;;;;;;5.00;2.80;;;25.70;45.00;;;;;;5055115;28;20032;-76
2022/06/12 02:35:27;;;;;;;3.55;2.88;;;25.80;45.20;;;;;;5037841;28;20087;-76
2022/06/12 02:38:03;;;;;;;3.35;2.75;;;25.80;45.00;;;;;;5055238;28;20055;-76
2022/06/12 02:40:51;;;;;;;3.40;2.70;;;25.80;45.00;;;;;;5037212;28;20053;-76
2022/06/12 02:43:22;;;;;;;3.95;3.08;;;25.80;44.90;;;;;;5054622;28;20033;-77
2022/06/12 02:46:11;;;;;;;3.13;2.58;;;25.90;44.90;;;;;;5055492;28;20021;-77
2022/06/12 02:48:37;;;;;;;4.15;2.60;;;25.90;45.20;;;;;;5037354;28;20021;-77
2022/06/12 02:51:27;;;;;;;3.00;2.50;;;25.90;44.80;;;;;;5054838;28;20116;-77
2022/06/12 02:54:17;;;;;;;2.88;2.53;;;25.90;44.90;;;;;;5037632;28;20028;-77
2022/06/12 02:57:06;;;;;;;4.90;2.92;;;26.00;44.90;;;;;;5055027;28;20033;-76
2022/06/12 03:00:06;;;;;;;4.00;2.70;;;26.00;44.80;;;;;;5037697;28;20127;-77
2022/06/12 03:02:35;;;;;;;4.95;2.80;;;26.00;44.80;;;;;;5054987;28;20119;-77
2022/06/12 03:05:26;;;;;;;3.10;2.53;;;26.10;44.80;;;;;;5054739;28;20025;-76
2022/06/12 03:08:06;;;;;;;3.75;2.65;;;26.10;44.90;;;;;;5054975;28;20108;-77
2022/06/12 03:10:39;;;;;;;3.53;2.65;;;26.10;44.80;;;;;;5036791;28;20479;-77
2022/06/12 03:13:09;;;;;;;4.90;2.70;;;26.10;44.80;;;;;;5037118;28;20360;-76
2022/06/12 03:15:41;;;;;;;2.85;2.30;;;26.10;44.70;;;;;;5036509;28;20036;-76
2022/06/12 03:18:11;;;;;;;5.40;3.10;;;26.10;44.70;;;;;;5036689;28;20046;-76
2022/06/12 03:20:43;;;;;;;4.72;2.65;;;26.20;44.60;;;;;;5054861;28;20107;-76
2022/06/12 03:23:36;;;;;;;4.05;3.08;;;26.20;44.60;;;;;;5054461;28;20372;-77
2022/06/12 03:26:07;;;;;;;4.78;3.25;;;26.20;44.50;;;;;;5036685;28;20024;-77
2022/06/12 03:28:55;;;;;;;7.65;2.80;;;26.20;44.40;;;;;;5054256;28;20029;-77
2022/06/12 03:31:35;;;;;;;3.58;3.03;;;26.30;44.50;;;;;;5053668;28;20052;-77
2022/06/12 03:34:11;;;;;;;5.25;2.80;;;26.30;44.50;;;;;;5054561;28;20100;-78
2022/06/12 03:36:49;;;;;;;4.45;3.05;;;26.30;44.50;;;;;;5054715;28;20447;-77
2022/06/12 03:39:22;;;;;;;3.47;2.83;;;26.30;44.50;;;;;;5053954;28;20040;-76
2022/06/12 03:41:56;;;;;;;3.73;2.97;;;26.30;44.40;;;;;;5054422;28;20052;-76
2022/06/12 03:44:43;;;;;;;3.97;3.03;;;26.30;44.40;;;;;;5054223;28;20246;-77
2022/06/12 03:47:36;;;;;;;4.82;2.97;;;26.30;44.40;;;;;;5035934;28;20033;-76
2022/06/12 03:50:21;;;;;;;5.28;3.25;;;26.40;44.50;;;;;;5047411;28;20052;-76
2022/06/12 03:53:09;;;;;;;3.95;2.92;;;26.40;44.40;;;;;;5053972;28;20077;-77
2022/06/12 03:59:13;;;;;;;3.90;3.05;;;26.40;44.50;;;;;;5053824;28;20067;-76
2022/06/12 04:01:41;;;;;;;4.53;3.60;;;26.40;44.40;;;;;;5036165;28;20041;-76
2022/06/12 04:04:08;;;;;;;4.05;3.10;;;26.40;44.40;;;;;;5053825;28;20060;-76
2022/06/12 04:06:35;;;;;;;4.63;3.83;;;26.40;44.30;;;;;;5036056;28;20035;-76
2022/06/12 04:09:06;;;;;;;5.53;3.60;;;26.40;44.40;;;;;;5053794;28;20036;-77
2022/06/12 04:11:36;;;;;;;5.03;3.40;;;26.40;44.40;;;;;;5053951;28;20029;-77
2022/06/12 04:14:06;;;;;;;6.25;3.30;;;26.40;44.40;;;;;;5053669;28;20053;-77
2022/06/12 04:17:04;;;;;;;4.93;3.50;;;26.40;44.50;;;;;;5053952;28;20029;-76
2022/06/12 04:19:32;;;;;;;5.22;3.47;;;26.40;44.70;;;;;;5041506;28;20076;-78
2022/06/12 04:22:14;;;;;;;4.45;3.70;;;26.50;44.60;;;;;;5035784;28;20029;-76
2022/06/12 04:24:47;;;;;;;5.80;3.60;;;26.50;44.70;;;;;;5035767;28;20025;-76
2022/06/12 04:27:26;;;;;;;8.25;3.80;;;26.50;44.70;;;;;;5053625;28;20032;-76
2022/06/12 04:30:15;;;;;;;4.75;3.58;;;26.50;44.80;;;;;;5035894;28;20041;-77
2022/06/12 04:32:41;;;;;;;6.03;3.70;;;26.50;45.50;;;;;;5053326;28;20017;-77
2022/06/12 04:35:08;;;;;;;5.00;4.03;;;26.50;44.90;;;;;;5053770;28;20056;-77
2022/06/12 04:37:33;;;;;;;5.18;3.78;;;26.50;44.80;;;;;;5053364;28;20073;-77
2022/06/12 04:40:02;;;;;;;6.05;3.78;;;26.50;44.90;;;;;;5053128;28;20139;-77
2022/06/12 04:42:32;;;;;;;5.18;3.75;;;26.50;44.90;;;;;;5056825;28;20025;-76
2022/06/12 04:45:00;;;;;;;6.10;3.78;;;26.50;44.90;;;;;;5057868;28;20025;-77
2022/06/12 04:47:29;;;;;;;5.05;3.67;;;26.50;44.80;;;;;;5057442;28;20061;-77
2022/06/12 04:49:55;;;;;;;5.35;3.97;;;26.60;44.90;;;;;;5039377;28;20037;-77
2022/06/12 04:52:24;;;;;;;4.30;3.80;;;26.60;44.70;;;;;;5057387;28;20532;-77
2022/06/12 04:54:50;;;;;;;6.38;4.22;;;26.60;44.50;;;;;;5057510;28;20107;-77
2022/06/12 04:57:17;;;;;;;6.25;4.63;;;26.60;44.30;;;;;;5057080;28;20594;-77
2022/06/12 04:59:45;;;;;;;7.55;4.50;;;26.60;44.20;;;;;;5057065;28;20115;-77
2022/06/12 05:02:11;;;;;;;6.13;4.57;;;26.60;44.20;;;;;;5057191;28;20371;-77
2022/06/12 05:04:37;;;;;;;6.72;4.28;;;26.60;44.20;;;;;;5056787;28;20020;-76
2022/06/12 05:07:07;;;;;;;7.18;4.20;;;26.70;44.30;;;;;;5057357;28;20033;-77
2022/06/12 05:09:36;;;;;;;5.22;4.07;;;26.70;44.20;;;;;;5038983;28;20033;-76
2022/06/12 05:12:03;;;;;;;5.82;4.10;;;26.70;44.10;;;;;;5038817;28;20032;-76
2022/06/12 05:14:29;;;;;;;4.38;3.67;;;26.70;44.00;;;;;;5056921;28;20021;-76
2022/06/12 05:17:01;;;;;;;6.05;4.10;;;26.80;44.00;;;;;;5056852;28;20408;-77
2022/06/12 05:19:31;;;;;;;5.10;4.00;;;26.80;43.80;;;;;;5057220;28;20112;-77
2022/06/12 05:21:57;;;;;;;5.28;3.90;;;26.80;43.70;;;;;;5039145;28;20024;-77
2022/06/12 05:24:23;;;;;;;5.38;3.88;;;26.80;43.60;;;;;;5056637;28;20112;-77
2022/06/12 05:26:51;;;;;;;5.18;4.40;;;26.80;43.60;;;;;;5056447;28;20060;-77
2022/06/12 05:29:26;;;;;;;8.60;4.60;;;26.90;43.70;;;;;;5056700;28;20052;-77
2022/06/12 05:31:53;;;;;;;5.00;4.00;;;26.90;43.70;;;;;;5056706;28;20025;-77
2022/06/12 05:34:21;;;;;;;5.70;3.78;;;26.90;43.70;;;;;;5056869;28;20071;-77
2022/06/12 05:36:47;;;;;;;5.82;4.03;;;26.90;43.60;;;;;;5038427;28;20033;-77
2022/06/12 05:39:13;;;;;;;7.05;4.07;;;27.00;43.70;;;;;;5038464;28;20041;-77
2022/06/12 05:41:39;;;;;;;4.88;3.72;;;27.00;43.60;;;;;;5038520;28;20025;-77
2022/06/12 05:44:05;;;;;;;5.65;3.80;;;27.00;43.60;;;;;;5056368;28;20025;-77
2022/06/12 05:46:31;;;;;;;6.53;4.10;;;27.00;43.60;;;;;;5056026;28;20029;-77
2022/06/12 05:48:57;;;;;;;5.22;4.25;;;27.00;43.50;;;;;;5056332;28;20032;-76
2022/06/12 05:51:23;;;;;;;5.80;4.07;;;27.10;43.40;;;;;;5038676;28;20372;-78
2022/06/12 05:53:48;;;;;;;4.60;3.97;;;27.10;43.30;;;;;;5055393;28;20035;-76
2022/06/12 05:56:18;;;;;;;4.75;4.00;;;27.00;43.30;;;;;;5056038;28;20418;-77
2022/06/12 05:58:45;;;;;;;6.28;4.00;;;27.10;43.30;;;;;;5056211;28;20390;-77
2022/06/12 06:01:13;;;;;;;5.03;3.85;;;27.10;43.20;;;;;;5056210;28;20086;-76
2022/06/12 06:03:39;;;;;;;4.20;3.45;;;27.10;43.10;;;;;;5055968;28;20087;-77
2022/06/12 06:06:07;;;;;;;6.93;3.65;;;27.10;43.10;;;;;;5055888;28;20459;-77
2022/06/12 06:08:33;;;;;;;6.28;3.55;;;27.20;43.10;;;;;;5055617;28;20390;-77
2022/06/12 06:10:59;;;;;;;5.55;3.42;;;27.20;43.10;;;;;;5037856;28;20048;-77
2022/06/12 06:13:24;;;;;;;4.95;3.75;;;27.20;42.90;;;;;;5055673;28;20029;-77
2022/06/12 06:15:50;;;;;;;4.00;3.60;;;27.20;43.50;;;;;;5056049;28;20025;-77
2022/06/12 06:18:18;;;;;;;4.68;3.63;;;27.20;42.80;;;;;;5055677;28;20493;-77
2022/06/12 06:20:44;;;;;;;4.13;3.38;;;27.20;42.80;;;;;;5055681;28;20033;-77
2022/06/12 06:23:10;;;;;;;5.03;3.90;;;27.20;42.80;;;;;;5055561;28;20036;-76
2022/06/12 06:25:38;;;;;;;4.95;3.55;;;27.20;42.90;;;;;;5055964;28;20367;-77
2022/06/12 06:28:04;;;;;;;3.97;3.22;;;27.30;43.00;;;;;;5055137;28;20029;-77
2022/06/12 06:30:30;;;;;;;4.95;3.65;;;27.30;42.90;;;;;;5055779;28;20033;-77
2022/06/12 06:32:57;;;;;;;4.70;3.30;;;27.30;42.90;;;;;;5037538;28;20086;-77
2022/06/12 06:35:23;;;;;;;4.55;3.50;;;27.30;42.80;;;;;;5037380;28;20029;-76
2022/06/12 06:37:50;;;;;;;4.18;3.25;;;27.30;42.90;;;;;;5055402;28;20452;-77
2022/06/12 06:40:18;;;;;;;4.20;3.30;;;27.30;42.80;;;;;;5055345;28;20057;-76
2022/06/12 06:42:44;;;;;;;4.57;3.28;;;27.30;42.80;;;;;;5055032;28;20116;-76
2022/06/12 06:48:00;;;;;;;3.95;3.25;;;27.40;42.80;;;;;;5055119;28;20163;-77
2022/06/12 06:50:26;;;;;;;4.28;3.13;;;27.40;42.70;;;;;;5055040;28;20033;-77
2022/06/12 06:52:52;;;;;;;4.13;2.90;;;27.40;42.70;;;;;;5037211;28;20029;-77
2022/06/12 06:55:18;;;;;;;3.65;2.80;;;27.50;42.60;;;;;;5055114;28;20104;-77
2022/06/12 06:57:46;;;;;;;3.92;2.97;;;27.50;42.50;;;;;;5054972;28;20025;-77
2022/06/12 07:00:17;;;;;;;4.25;3.22;;;27.50;42.50;;;;;;5054812;28;20029;-78
2022/06/12 07:02:43;;;;;;;4.25;3.45;;;27.50;42.40;;;;;;5054476;28;20021;-77
2022/06/12 07:05:09;;;;;;;4.72;3.00;;;27.50;42.40;;;;;;5053739;28;20036;-77
2022/06/12 07:07:36;;;;;;;3.58;2.70;;;27.50;42.30;;;;;;5054712;28;20063;-77
2022/06/12 07:10:03;;;;;;;3.40;2.78;;;27.50;42.20;;;;;;5054843;28;20087;-77
2022/06/12 07:12:29;;;;;;;3.05;2.75;;;27.50;42.10;;;;;;5037223;28;20419;-77
2022/06/12 07:14:54;;;;;;;4.68;3.13;;;27.50;42.10;;;;;;5054242;28;20028;-78
2022/06/12 07:17:20;;;;;;;3.30;2.88;;;27.50;42.00;;;;;;5054583;28;20071;-77
2022/06/12 07:19:46;;;;;;;3.85;2.97;;;27.60;42.00;;;;;;5054689;28;20037;-77
2022/06/12 07:22:11;;;;;;;2.72;2.40;;;27.60;41.90;;;;;;5054285;28;20100;-77
2022/06/12 07:24:38;;;;;;;3.88;2.95;;;27.60;41.80;;;;;;5054662;28;20032;-77
2022/06/12 07:27:11;;;;;;;3.63;2.92;;;27.60;41.80;;;;;;5070953;28;20449;-77
2022/06/12 07:29:37;;;;;;;4.28;2.90;;;27.60;41.70;;;;;;5069626;28;20032;-76
2022/06/12 07:32:03;;;;;;;3.65;2.70;;;27.70;41.80;;;;;;5071134;28;20040;-79
2022/06/12 07:34:29;;;;;;;3.00;2.53;;;27.70;41.80;;;;;;5070662;28;20459;-77
2022/06/12 07:36:55;;;;;;;6.07;2.70;;;27.70;41.70;;;;;;5070942;28;20063;-77
2022/06/12 07:39:24;;;;;;;3.63;2.85;;;27.70;41.60;;;;;;5071231;28;20521;-77
2022/06/12 07:41:51;;;;;;;3.83;2.55;;;27.70;41.50;;;;;;5070760;28;20064;-76
2022/06/12 07:44:21;;;;;;;3.53;2.65;;;27.80;41.50;;;;;;5070446;28;20017;-76
2022/06/12 07:46:52;;;;;;;3.08;2.28;;;27.80;41.40;;;;;;5070239;28;20039;-76
2022/06/12 07:49:19;;;;;;;2.95;2.40;;;27.80;41.20;;;;;;5068904;28;20032;-77
2022/06/12 07:51:45;;;;;;;3.42;2.60;;;27.80;41.20;;;;;;5070274;28;20488;-77
2022/06/12 07:54:11;;;;;;;4.03;2.50;;;27.90;41.30;;;;;;5069013;28;20033;-76
2022/06/12 07:56:37;;;;;;;5.03;2.88;;;27.90;41.30;;;;;;5070202;28;20112;-76
2022/06/12 07:59:04;;;;;;;3.28;2.88;;;27.90;41.30;;;;;;5070241;28;20064;-78
2022/06/12 08:01:30;;;;;;;3.38;2.67;;;27.90;41.30;;;;;;5070120;28;20082;-77
2022/06/12 08:03:57;;;;;;;2.53;2.33;;;27.90;41.40;;;;;;5068820;28;20077;-76
2022/06/12 08:06:24;;;;;;;2.90;2.40;;;28.00;41.40;;;;;;5070072;28;20043;-75
2022/06/12 08:08:50;;;;;;;4.95;3.00;;;28.00;41.50;;;;;;5068597;28;20037;-77
2022/06/12 08:11:16;;;;;;;3.63;2.88;;;28.00;41.80;;;;;;5069786;28;20021;-77
2022/06/12 08:13:42;;;;;;;4.15;3.03;;;28.00;42.00;;;;;;5070031;28;20417;-77
2022/06/12 08:16:09;;;;;;;4.15;2.78;;;27.90;42.00;;;;;;5069947;28;20028;-76
2022/06/12 08:18:35;;;;;;;3.38;2.55;;;28.00;42.10;;;;;;5069781;28;20029;-76
2022/06/12 08:21:04;;;;;;;3.53;2.70;;;27.90;42.20;;;;;;5069773;28;20029;-76
2022/06/12 08:23:34;;;;;;;3.75;2.63;;;28.00;42.30;;;;;;5069757;28;20033;-76
2022/06/12 08:26:02;;;;;;;3.20;2.58;;;28.00;42.40;;;;;;5069971;28;20132;-76
2022/06/12 08:28:32;;;;;;;5.15;2.58;;;28.00;42.50;;;;;;5069754;28;20090;-77
2022/06/12 08:30:59;;;;;;;3.50;2.50;;;28.00;42.50;;;;;;5070176;28;20029;-78
2022/06/12 08:33:25;;;;;;;3.08;2.50;;;28.00;42.50;;;;;;5068523;28;20459;-78
2022/06/12 08:35:52;;;;;;;4.32;2.40;;;28.10;42.60;;;;;;5069431;28;20036;-77
2022/06/12 08:38:19;;;;;;;2.58;2.38;;;28.10;42.40;;;;;;5057820;28;20151;-77
2022/06/12 08:41:05;;;;;;;3.58;2.00;;;28.20;42.30;;;;;;5056696;28;20056;-76
2022/06/12 08:43:45;;;;;;;2.53;2.25;;;28.20;42.10;;;;;;5055653;28;20504;-77
2022/06/12 08:46:34;;;;;;;3.10;2.15;;;28.20;42.20;;;;;;5056378;28;20120;-77
2022/06/12 08:49:14;;;;;;;2.42;2.10;;;28.10;42.00;;;;;;5056149;28;20037;-77
2022/06/12 08:51:54;;;;;;;2.22;2.03;;;28.20;41.80;;;;;;5054648;28;20021;-77
2022/06/12 08:54:30;;;;;;;3.75;2.38;;;28.20;41.60;;;;;;5055263;28;20120;-77
2022/06/12 08:57:08;;;;;;;2.30;2.10;;;28.30;41.10;;;;;;5056020;28;20162;-78
2022/06/12 08:59:53;;;;;;;2.20;2.00;;;28.40;41.00;;;;;;5056227;28;20028;-77
2022/06/12 09:02:26;;;;;;;3.00;1.98;;;28.50;40.70;;;;;;5055089;28;20106;-77
2022/06/12 09:04:53;;;;;;;2.60;2.20;;;28.50;40.60;;;;;;5056160;28;20477;-77
2022/06/12 09:07:38;;;;;;;1.92;1.83;;;28.50;40.40;;;;;;5055881;28;20025;-78
2022/06/12 09:10:24;;;;;;;4.20;2.30;;;28.60;40.40;;;;;;5055658;28;20593;-77
2022/06/12 09:12:57;;;;;;;2.78;2.00;;;28.70;40.00;;;;;;5055982;28;20537;-80
2022/06/12 09:16:14;;;;;;;2.10;1.90;;;28.70;40.00;;;;;;5054300;28;20029;-77
2022/06/12 09:19:01;;;;;;;2.55;2.10;;;28.70;39.20;;;;;;5053191;28;20407;-77
2022/06/12 09:22:02;;;;;;;2.00;1.80;;;28.90;39.30;;;;;;5053550;28;20121;-77
2022/06/12 09:24:58;;;;;;;2.40;1.75;;;28.90;39.30;;;;;;5041632;28;20033;-77
2022/06/12 09:27:36;;;;;;;2.35;2.00;;;28.90;38.90;;;;;;5055655;28;20481;-77
2022/06/12 09:30:08;;;;;;;2.17;1.98;;;28.90;39.40;;;;;;5055588;28;20017;-77
2022/06/12 09:32:58;;;;;;;2.28;1.65;;;29.00;39.10;;;;;;5055310;28;20040;-78
2022/06/12 09:35:36;;;;;;;2.33;1.88;;;28.90;38.90;;;;;;5053755;28;20033;-72
2022/06/12 09:38:19;;;;;;;2.15;1.98;;;28.90;38.80;;;;;;5055156;28;20029;-73
2022/06/12 09:41:09;;;;;;;1.63;1.52;;;28.90;38.60;;;;;;5055548;28;20526;-73
2022/06/12 09:43:42;;;;;;;2.45;1.77;;;28.90;38.70;;;;;;5055127;28;20379;-73
2022/06/12 09:46:27;;;;;;;;;;;28.90;38.10;;;;;;5054954;28;20039;-72
2022/06/12 09:48:55;;;;;;;3.03;1.90;;;28.90;37.60;;;;;;5054332;28;20246;-72
2022/06/12 09:51:55;;;;;;;2.03;1.83;;;28.90;38.30;;;;;;5054875;28;20079;-77
2022/06/12 09:54:20;;;;;;;1.88;1.73;;;29.00;37.70;;;;;;5055191;28;20480;-77
2022/06/12 09:57:02;;;;;;;1.98;1.77;;;28.90;38.00;;;;;;5054652;28;20036;-79
2022/06/12 09:59:37;;;;;;;2.10;1.90;;;29.00;37.90;;;;;;5053503;28;20066;-79
2022/06/12 10:02:14;;;;;;;1.80;1.70;;;28.90;37.70;;;;;;5055003;28;20029;-79
2022/06/12 10:04:56;;;;;;;1.80;1.70;;;29.00;37.90;;;;;;5054499;28;20029;-80
2022/06/12 10:07:31;;;;;;;2.92;2.15;;;29.00;37.20;;;;;;5054784;28;20494;-78
2022/06/12 10:10:03;;;;;;;2.10;1.90;;;29.00;37.60;;;;;;5053854;28;20036;-79
2022/06/12 10:12:36;;;;;;;2.78;1.90;;;29.10;37.70;;;;;;5054636;28;20036;-79
2022/06/12 10:15:10;;;;;;;1.95;1.67;;;29.10;37.70;;;;;;5053465;28;20391;-78
2022/06/12 10:17:48;;;;;;;1.65;1.55;;;29.20;37.70;;;;;;5054566;28;20067;-78
2022/06/12 10:20:32;;;;;;;1.92;1.80;;;29.20;37.50;;;;;;5054423;28;20436;-79
2022/06/12 10:22:59;;;;;;;3.33;1.90;;;29.20;37.60;;;;;;5054429;28;20068;-80
2022/06/12 10:25:35;;;;;;;2.00;1.73;;;29.20;37.70;;;;;;5052651;28;20423;-79
2022/06/12 10:28:13;;;;;;;2.38;1.80;;;29.30;37.60;;;;;;5054530;28;20104;-79
2022/06/12 10:30:42;;;;;;;1.90;1.75;;;29.30;37.40;;;;;;5054245;28;20025;-79
2022/06/12 10:33:17;;;;;;;2.00;1.90;;;29.30;37.50;;;;;;5054391;28;20075;-79
2022/06/12 10:36:03;;;;;;;3.75;1.83;;;29.40;37.30;;;;;;5054112;28;20120;-79
2022/06/12 10:38:34;;;;;;;4.72;1.90;;;29.50;36.60;;;;;;5053001;28;20124;-80
2022/06/12 10:41:04;;;;;;;2.08;1.88;;;29.60;37.30;;;;;;5054367;28;20063;-80
2022/06/12 10:43:38;;;;;;;1.83;1.73;;;29.60;37.20;;;;;;5054125;28;20112;-79
2022/06/12 10:46:16;;;;;;;2.33;1.65;;;29.60;37.20;;;;;;5052541;28;20032;-79
2022/06/12 10:48:43;;;;;;;1.60;1.50;;;29.60;37.20;;;;;;5052730;28;20452;-79
2022/06/12 10:51:35;;;;;;;1.80;1.70;;;29.60;37.30;;;;;;5052633;28;20025;-79
2022/06/12 10:54:13;;;;;;;2.40;1.70;;;29.60;37.10;;;;;;5054073;28;20033;-79
2022/06/12 10:56:50;;;;;;;2.20;2.00;;;29.70;37.20;;;;;;5053262;28;20380;-79
2022/06/12 10:59:34;;;;;;;5.68;2.10;;;29.70;37.20;;;;;;5052931;28;20467;-78
2022/06/12 11:02:06;;;;;;;2.92;1.90;;;29.70;37.20;;;;;;5054658;28;20028;-79
2022/06/12 11:04:47;;;;;;;2.63;2.00;;;29.70;37.20;;;;;;5053895;28;20029;-79
2022/06/12 11:07:40;;;;;;;2.28;2.08;;;29.70;37.20;;;;;;5052532;28;20048;-79
2022/06/12 11:10:24;;;;;;;2.60;1.90;;;29.70;37.10;;;;;;5053821;28;20473;-79
2022/06/12 11:13:08;;;;;;;2.58;1.85;;;29.70;37.00;;;;;;5053841;28;20372;-78
2022/06/12 11:16:09;;;;;;;2.88;2.58;;;29.70;36.80;;;;;;5053358;28;20060;-79
2022/06/12 11:18:58;;;;;;;2.58;2.03;;;29.80;37.40;;;;;;5054109;28;20035;-78
2022/06/12 11:21:43;;;;;;;2.15;1.92;;;29.80;36.90;;;;;;5052097;28;20037;-80
2022/06/12 11:24:09;;;;;;;2.35;2.15;;;29.80;36.70;;;;;;5053541;28;20025;-78
2022/06/12 11:26:44;;;;;;;2.40;2.20;;;29.70;36.80;;;;;;5051945;28;20495;-79
2022/06/12 11:29:18;;;;;;;2.35;2.15;;;29.70;36.80;;;;;;5052332;28;20032;-79
2022/06/12 11:32:06;;;;;;;3.05;2.25;;;29.70;36.80;;;;;;5053333;28;20029;-79
2022/06/12 11:34:38;;;;;;;2.60;2.10;;;29.70;36.80;;;;;;5053363;28;20025;-78
2022/06/12 11:37:10;;;;;;;2.72;2.38;;;29.70;36.80;;;;;;5054021;28;20025;-78
2022/06/12 11:39:57;;;;;;;2.53;2.17;;;29.70;36.90;;;;;;5053559;28;20025;-78
2022/06/12 11:42:51;;;;;;;5.20;2.13;;;29.70;36.50;;;;;;5053377;28;20029;-75
2022/06/12 11:45:26;;;;;;;4.40;2.50;;;29.70;36.80;;;;;;5053309;28;20059;-79
2022/06/12 11:48:02;;;;;;;3.80;2.20;;;29.70;36.90;;;;;;5053174;28;20057;-79
2022/06/12 11:51:10;;;;;;;4.13;2.40;;;29.70;36.80;;;;;;5053753;28;20029;-78
2022/06/12 11:53:45;;;;;;;2.22;2.00;;;29.70;36.70;;;;;;5052762;28;20116;-78
2022/06/12 11:56:22;;;;;;;2.75;2.20;;;29.80;36.90;;;;;;5053132;28;20025;-77
2022/06/12 11:59:24;;;;;;;2.90;2.35;;;29.80;36.90;;;;;;5053138;28;20028;-79
2022/06/12 12:02:13;;;;;;;2.72;2.45;;;29.90;36.60;;;;;;5053199;28;20025;-79
2022/06/12 12:05:07;;;;;;;2.28;2.08;;;29.90;36.90;;;;;;5053831;28;20091;-78
2022/06/12 12:07:35;;;;;;;2.33;2.13;;;29.90;36.70;;;;;;5053260;28;20037;-79
2022/06/12 12:10:19;;;;;;;2.53;2.08;;;29.90;36.80;;;;;;5053370;28;20029;-78
2022/06/12 12:12:52;;;;;;;2.20;2.00;;;29.90;36.50;;;;;;5054955;28;20048;-79
2022/06/12 12:15:27;;;;;;;2.40;2.20;;;30.00;36.60;;;;;;5057176;28;20079;-78
2022/06/12 12:17:56;;;;;;;3.00;2.05;;;30.00;36.50;;;;;;5055399;28;20071;-78
2022/06/12 12:20:40;;;;;;;2.53;2.30;;;30.10;36.50;;;;;;5057363;28;20353;-79
2022/06/12 12:23:11;;;;;;;3.03;2.30;;;30.10;36.20;;;;;;5056978;28;20029;-78
2022/06/12 12:26:01;;;;;;;2.30;2.10;;;30.10;36.40;;;;;;5056340;28;20088;-79
2022/06/12 12:28:34;;;;;;;4.95;2.63;;;30.20;36.30;;;;;;5056463;28;20036;-79
2022/06/12 12:31:06;;;;;;;3.60;2.80;;;30.30;36.30;;;;;;5057115;28;20028;-80
2022/06/12 12:33:33;;;;;;;3.13;2.60;;;30.40;36.30;;;;;;5056705;28;20025;-79
2022/06/12 12:41:46;;;;;;;3.58;2.75;;;30.70;36.30;;;;;;5057799;28;20024;-79
2022/06/12 12:44:15;;;;;;;3.40;2.72;;;30.70;36.40;;;;;;5056644;28;20490;-79
2022/06/12 12:46:49;;;;;;;6.22;3.15;;;30.70;36.40;;;;;;5054963;28;20132;-79
2022/06/12 12:49:26;;;;;;;4.38;3.75;;;30.80;36.70;;;;;;5056487;28;20087;-80
2022/06/12 12:52:03;;;;;;;4.13;3.60;;;30.90;36.90;;;;;;5056420;28;20025;-79
2022/06/12 12:54:41;;;;;;;5.03;3.30;;;31.10;37.00;;;;;;5055078;28;20074;-80
2022/06/12 12:57:07;;;;;;;4.78;3.40;;;31.10;36.80;;;;;;5054768;28;20464;-80
2022/06/12 12:59:45;;;;;;;4.53;3.40;;;31.10;36.70;;;;;;5056033;28;20033;-81
2022/06/12 13:02:35;;;;;;;4.75;3.80;;;31.20;36.70;;;;;;5056268;28;20056;-79
2022/06/12 13:05:16;;;;;;;5.40;3.90;;;31.30;36.50;;;;;;5055016;28;20402;-80
2022/06/12 13:07:57;;;;;;;4.25;3.50;;;31.40;36.70;;;;;;5054787;28;20040;-79
2022/06/12 13:10:41;;;;;;;5.50;3.60;;;31.40;36.60;;;;;;5055915;28;20056;-80
2022/06/12 13:13:25;;;;;;;;;;;31.50;36.70;;;;;;5056504;28;20029;-80
2022/06/12 13:15:58;;;;;;;6.32;4.20;;;31.60;36.80;;;;;;5055733;28;19905;-80
2022/06/12 13:18:56;;;;;;;5.63;3.80;;;31.60;36.70;;;;;;5055703;28;20112;-81
2022/06/12 13:21:25;;;;;;;4.15;3.65;;;31.80;36.80;;;;;;5055832;28;20040;-80
2022/06/12 13:24:06;;;;;;;4.40;3.90;;;31.90;36.80;;;;;;5054230;28;20427;-80
2022/06/12 13:26:35;;;;;;;4.85;3.65;;;31.90;36.80;;;;;;5054017;28;20057;-81
2022/06/12 13:29:03;;;;;;;5.10;4.40;;;32.00;36.80;;;;;;5055712;28;20033;-80
2022/06/12 13:31:33;;;;;;;5.68;4.10;;;32.20;36.60;;;;;;5055756;28;20356;-80
2022/06/12 13:34:00;;;;;;;4.50;3.90;;;32.50;36.60;;;;;;5055644;28;20069;-81
2022/06/12 13:36:33;;;;;;;6.40;4.25;;;32.90;36.50;;;;;;5055534;28;20425;-80
2022/06/12 13:39:06;;;;;;;3.87;3.47;;;33.40;36.40;;;;;;5054185;28;20467;-79
2022/06/12 13:41:40;;;;;;;4.82;4.05;;;34.00;36.20;;;;;;5055863;28;20035;-80